createdAt,value
2023-08-17T00:00:06.991Z,85.44
2023-08-17T00:00:39.483Z,85.39
2023-08-17T00:01:12.407Z,85.31
2023-08-17T00:01:44.999Z,85.31
2023-08-17T00:02:17.625Z,85.23
2023-08-17T00:02:50.128Z,85.23
2023-08-17T00:03:22.733Z,85.50
2023-08-17T00:03:55.340Z,85.66
2023-08-17T00:04:28.249Z,85.74
2023-08-17T00:05:00.845Z,85.82
2023-08-17T00:05:34.237Z,86.11
2023-08-17T00:06:06.725Z,86.24
2023-08-17T00:06:39.232Z,86.30
2023-08-17T00:07:11.944Z,86.31
2023-08-17T00:07:44.427Z,86.24
2023-08-17T00:08:16.990Z,85.91
2023-08-17T00:08:49.481Z,85.93
2023-08-17T00:09:22.009Z,86.07
2023-08-17T00:09:54.574Z,86.12
2023-08-17T00:10:27.135Z,86.20
2023-08-17T00:10:59.614Z,86.19
2023-08-17T00:11:32.128Z,85.91
2023-08-17T00:12:04.977Z,85.74
2023-08-17T00:12:38.620Z,85.93
2023-08-17T00:13:11.772Z,86.12
2023-08-17T00:13:44.295Z,85.79
2023-08-17T00:14:16.818Z,85.55
2023-08-17T00:14:49.320Z,85.65
2023-08-17T00:15:21.821Z,85.69
2023-08-17T00:15:54.314Z,85.67
2023-08-17T00:16:27.201Z,85.87
2023-08-17T00:16:59.814Z,85.74
2023-08-17T00:17:32.406Z,85.72
2023-08-17T00:18:05.137Z,85.62
2023-08-17T00:18:38.008Z,85.62
2023-08-17T00:19:10.558Z,85.61
2023-08-17T00:19:43.101Z,85.50
2023-08-17T00:20:16.179Z,85.48
2023-08-17T00:20:49.356Z,85.65
2023-08-17T00:21:21.880Z,85.49
2023-08-17T00:21:56.194Z,85.34
2023-08-17T00:22:28.800Z,85.11
2023-08-17T00:23:01.284Z,84.96
2023-08-17T00:23:33.768Z,84.98
2023-08-17T00:24:06.269Z,84.86
2023-08-17T00:24:38.956Z,84.95
2023-08-17T00:25:11.465Z,85.14
2023-08-17T00:25:44.007Z,85.29
2023-08-17T00:26:16.794Z,85.37
2023-08-17T00:26:49.307Z,85.33
2023-08-17T00:27:21.795Z,85.26
2023-08-17T00:27:54.275Z,85.34
2023-08-17T00:28:27.158Z,85.39
2023-08-17T00:28:59.679Z,85.58
2023-08-17T00:29:32.620Z,85.39
2023-08-17T00:30:05.618Z,85.56
2023-08-17T00:30:38.890Z,85.47
2023-08-17T00:31:11.480Z,85.48
2023-08-17T00:31:44.120Z,85.27
2023-08-17T00:32:18.113Z,85.08
2023-08-17T00:32:51.237Z,85.04
2023-08-17T00:33:23.802Z,84.67
2023-08-17T00:33:56.477Z,84.44
2023-08-17T00:34:29.142Z,84.32
2023-08-17T00:35:01.618Z,84.14
2023-08-17T00:35:34.088Z,83.81
2023-08-17T00:36:06.607Z,83.99
2023-08-17T00:36:39.118Z,84.00
2023-08-17T00:37:11.694Z,83.73
2023-08-17T00:37:44.180Z,83.55
2023-08-17T00:38:16.684Z,83.62
2023-08-17T00:38:49.218Z,83.69
2023-08-17T00:39:21.727Z,83.91
2023-08-17T00:39:54.214Z,83.66
2023-08-17T00:40:26.735Z,83.33
2023-08-17T00:40:59.307Z,83.27
2023-08-17T00:41:31.842Z,83.35
2023-08-17T00:42:04.434Z,83.06
2023-08-17T00:42:36.917Z,83.03
2023-08-17T00:43:09.462Z,82.92
2023-08-17T00:43:42.158Z,83.04
2023-08-17T00:44:14.749Z,83.06
2023-08-17T00:44:47.271Z,82.85
2023-08-17T00:45:20.136Z,82.68
2023-08-17T00:45:52.766Z,82.69
2023-08-17T00:46:26.349Z,82.94
2023-08-17T00:46:58.924Z,82.99
2023-08-17T00:47:31.476Z,82.77
2023-08-17T00:48:06.405Z,82.73
2023-08-17T00:48:39.021Z,82.76
2023-08-17T00:49:12.304Z,82.52
2023-08-17T00:49:45.303Z,82.46
2023-08-17T00:50:17.855Z,82.34
2023-08-17T00:50:52.112Z,82.09
2023-08-17T00:51:25.743Z,81.95
2023-08-17T00:51:58.598Z,82.05
2023-08-17T00:52:33.800Z,81.99
2023-08-17T00:53:07.842Z,82.02
2023-08-17T00:53:40.692Z,82.13
2023-08-17T00:54:13.617Z,82.27
2023-08-17T00:54:46.158Z,82.11
2023-08-17T00:55:18.844Z,82.00
2023-08-17T00:55:53.738Z,81.94
2023-08-17T00:56:27.902Z,81.71
2023-08-17T00:57:01.650Z,81.68
2023-08-17T00:57:35.010Z,81.20
2023-08-17T00:58:07.584Z,81.15
2023-08-17T00:58:40.165Z,81.23
2023-08-17T00:59:12.713Z,81.30
2023-08-17T00:59:52.437Z,81.43
2023-08-17T01:00:32.778Z,81.05
2023-08-17T01:01:05.364Z,81.06
2023-08-17T01:01:37.957Z,81.14
2023-08-17T01:02:10.574Z,81.02
2023-08-17T01:02:43.570Z,81.05
2023-08-17T01:03:16.639Z,80.93
2023-08-17T01:03:49.164Z,80.78
2023-08-17T01:04:21.647Z,80.73
2023-08-17T01:04:54.728Z,80.75
2023-08-17T01:05:27.370Z,80.48
2023-08-17T01:05:59.853Z,80.17
2023-08-17T01:06:32.361Z,79.83
2023-08-17T01:07:04.903Z,79.84
2023-08-17T01:07:38.465Z,79.57
2023-08-17T01:08:11.136Z,79.60
2023-08-17T01:08:45.385Z,79.81
2023-08-17T01:09:17.910Z,79.44
2023-08-17T01:09:50.929Z,79.44
2023-08-17T01:10:23.738Z,79.57
2023-08-17T01:11:33.237Z,79.57
2023-08-17T01:12:15.260Z,79.56
2023-08-17T01:12:50.522Z,79.62
2023-08-17T01:13:32.996Z,79.69
2023-08-17T01:14:16.956Z,79.31
2023-08-17T01:14:55.462Z,79.18
2023-08-17T01:15:40.360Z,79.35
2023-08-17T01:16:22.313Z,79.24
2023-08-17T01:17:10.741Z,78.89
2023-08-17T01:17:56.460Z,79.14
2023-08-17T01:18:32.878Z,79.35
2023-08-17T01:19:10.852Z,79.34
2023-08-17T01:19:46.545Z,78.96
2023-08-17T01:20:20.632Z,78.87
2023-08-17T01:20:54.697Z,78.94
2023-08-17T01:21:38.554Z,78.98
2023-08-17T01:22:15.748Z,79.05
2023-08-17T01:22:51.430Z,79.31
2023-08-17T01:23:23.905Z,79.21
2023-08-17T01:24:00.282Z,78.69
2023-08-17T01:24:32.906Z,78.86
2023-08-17T01:25:05.883Z,79.02
2023-08-17T01:25:38.447Z,79.19
2023-08-17T01:26:11.006Z,79.58
2023-08-17T01:26:43.570Z,79.29
2023-08-17T01:27:16.045Z,79.31
2023-08-17T01:27:48.543Z,79.28
2023-08-17T01:28:21.339Z,79.01
2023-08-17T01:28:53.910Z,78.91
2023-08-17T01:29:27.243Z,78.82
2023-08-17T01:29:59.821Z,79.25
2023-08-17T01:30:55.298Z,78.99
2023-08-17T01:31:37.829Z,79.19
2023-08-17T01:32:19.480Z,79.48
2023-08-17T01:33:29.944Z,79.61
2023-08-17T01:34:09.384Z,79.23
2023-08-17T01:34:47.376Z,79.38
2023-08-17T01:35:28.810Z,79.34
2023-08-17T01:36:08.015Z,79.08
2023-08-17T01:36:57.233Z,79.15
2023-08-17T01:37:32.340Z,79.30
2023-08-17T01:38:10.949Z,79.25
2023-08-17T01:38:45.732Z,79.58
2023-08-17T01:39:19.212Z,79.61
2023-08-17T01:39:57.891Z,79.43
2023-08-17T01:40:35.369Z,79.31
2023-08-17T01:41:14.399Z,79.42
2023-08-17T01:41:48.404Z,79.62
2023-08-17T01:42:21.356Z,79.69
2023-08-17T01:42:54.741Z,79.62
2023-08-17T01:43:28.329Z,79.55
2023-08-17T01:44:02.124Z,79.59
2023-08-17T01:44:34.647Z,79.35
2023-08-17T01:45:07.553Z,79.38
2023-08-17T01:45:40.047Z,79.67
2023-08-17T01:46:19.105Z,79.72
2023-08-17T01:46:51.894Z,79.86
2023-08-17T01:47:24.744Z,79.61
2023-08-17T01:47:57.512Z,79.64
2023-08-17T01:48:30.010Z,80.00
2023-08-17T01:49:02.517Z,80.92
2023-08-17T01:49:34.998Z,81.75
2023-08-17T01:50:07.652Z,81.98
2023-08-17T01:50:40.203Z,82.05
2023-08-17T01:51:18.157Z,82.09
2023-08-17T01:51:50.663Z,82.08
2023-08-17T01:52:24.755Z,82.06
2023-08-17T01:52:57.274Z,82.19
2023-08-17T01:53:29.797Z,82.58
2023-08-17T01:54:02.654Z,82.68
2023-08-17T01:54:35.212Z,82.58
2023-08-17T01:55:08.051Z,82.40
2023-08-17T01:55:40.568Z,82.40
2023-08-17T01:56:13.109Z,82.52
2023-08-17T01:56:45.616Z,82.64
2023-08-17T01:57:18.156Z,82.88
2023-08-17T01:57:50.673Z,83.34
2023-08-17T01:58:23.162Z,83.62
2023-08-17T01:58:55.714Z,83.66
2023-08-17T01:59:28.196Z,83.62
2023-08-17T02:00:01.363Z,83.23
2023-08-17T02:00:33.874Z,83.10
2023-08-17T02:01:06.424Z,83.48
2023-08-17T02:01:38.936Z,83.81
2023-08-17T02:02:15.791Z,83.86
2023-08-17T02:02:48.382Z,83.89
2023-08-17T02:03:20.977Z,84.02
2023-08-17T02:03:53.490Z,83.90
2023-08-17T02:04:26.533Z,83.82
2023-08-17T02:04:59.039Z,83.87
2023-08-17T02:05:31.561Z,83.85
2023-08-17T02:06:04.338Z,83.90
2023-08-17T02:06:36.851Z,83.65
2023-08-17T02:07:09.349Z,83.16
2023-08-17T02:07:41.847Z,82.88
2023-08-17T02:08:14.422Z,82.47
2023-08-17T02:08:46.963Z,82.64
2023-08-17T02:09:19.487Z,82.60
2023-08-17T02:09:52.014Z,82.26
2023-08-17T02:10:24.499Z,81.94
2023-08-17T02:10:57.062Z,82.27
2023-08-17T02:11:29.575Z,82.56
2023-08-17T02:12:02.076Z,83.35
2023-08-17T02:12:34.646Z,83.61
2023-08-17T02:13:17.357Z,83.57
2023-08-17T02:13:50.972Z,84.19
2023-08-17T02:14:23.460Z,84.16
2023-08-17T02:14:55.975Z,84.12
2023-08-17T02:15:28.467Z,83.85
2023-08-17T02:16:00.970Z,83.72
2023-08-17T02:16:33.484Z,83.83
2023-08-17T02:17:06.772Z,83.87
2023-08-17T02:17:39.306Z,83.91
2023-08-17T02:18:11.870Z,84.27
2023-08-17T02:18:44.424Z,84.46
2023-08-17T02:19:16.974Z,84.79
2023-08-17T02:19:49.710Z,84.57
2023-08-17T02:20:22.211Z,84.55
2023-08-17T02:20:54.716Z,84.23
2023-08-17T02:21:27.242Z,84.18
2023-08-17T02:22:00.313Z,84.18
2023-08-17T02:22:32.784Z,84.34
2023-08-17T02:23:05.570Z,84.11
2023-08-17T02:23:38.076Z,84.29
2023-08-17T02:24:10.595Z,84.43
2023-08-17T02:24:43.370Z,84.66
2023-08-17T02:25:15.976Z,84.67
2023-08-17T02:25:48.678Z,84.52
2023-08-17T02:26:21.170Z,84.64
2023-08-17T02:26:53.650Z,84.75
2023-08-17T02:27:26.342Z,84.39
2023-08-17T02:27:59.069Z,84.43
2023-08-17T02:28:31.551Z,84.10
2023-08-17T02:29:04.065Z,84.17
2023-08-17T02:29:36.582Z,84.15
2023-08-17T02:30:09.441Z,83.52
2023-08-17T02:30:42.465Z,83.33
2023-08-17T02:31:15.015Z,83.19
2023-08-17T02:31:47.555Z,83.12
2023-08-17T02:32:20.030Z,82.73
2023-08-17T02:32:52.558Z,82.26
2023-08-17T02:33:25.657Z,82.92
2023-08-17T02:34:06.218Z,83.08
2023-08-17T02:34:38.818Z,83.13
2023-08-17T02:35:11.366Z,83.18
2023-08-17T02:35:43.942Z,83.43
2023-08-17T02:36:16.502Z,83.09
2023-08-17T02:36:49.043Z,83.20
2023-08-17T02:37:21.635Z,83.32
2023-08-17T02:37:54.237Z,83.64
2023-08-17T02:38:26.764Z,83.89
2023-08-17T02:38:59.276Z,83.94
2023-08-17T02:39:31.805Z,83.44
2023-08-17T02:40:05.538Z,82.96
2023-08-17T02:40:38.059Z,82.79
2023-08-17T02:41:10.587Z,82.74
2023-08-17T02:41:43.114Z,82.76
2023-08-17T02:42:15.598Z,82.98
2023-08-17T02:42:48.113Z,83.07
2023-08-17T02:43:20.600Z,83.06
2023-08-17T02:43:53.074Z,82.97
2023-08-17T02:44:25.562Z,82.86
2023-08-17T02:44:58.102Z,83.16
2023-08-17T02:45:30.587Z,83.05
2023-08-17T02:46:03.383Z,83.03
2023-08-17T02:46:35.916Z,82.73
2023-08-17T02:47:08.453Z,82.25
2023-08-17T02:47:40.986Z,82.64
2023-08-17T02:48:13.531Z,82.92
2023-08-17T02:48:46.017Z,82.89
2023-08-17T02:49:18.550Z,82.57
2023-08-17T02:50:11.700Z,82.81
2023-08-17T02:50:44.209Z,82.56
2023-08-17T02:51:16.745Z,82.29
2023-08-17T02:51:49.279Z,81.92
2023-08-17T02:52:21.807Z,81.88
2023-08-17T02:52:54.447Z,81.75
2023-08-17T02:53:26.963Z,82.11
2023-08-17T02:53:59.465Z,81.79
2023-08-17T02:54:32.748Z,81.46
2023-08-17T02:55:05.663Z,81.26
2023-08-17T02:55:38.311Z,81.23
2023-08-17T02:56:13.772Z,81.25
2023-08-17T02:56:46.333Z,81.54
2023-08-17T02:57:19.617Z,81.02
2023-08-17T02:57:52.094Z,81.22
2023-08-17T02:58:24.605Z,81.52
2023-08-17T02:58:57.102Z,81.57
2023-08-17T02:59:29.591Z,81.63
2023-08-17T03:00:02.080Z,81.43
2023-08-17T03:00:34.784Z,81.33
2023-08-17T03:01:07.718Z,81.21
2023-08-17T03:01:40.511Z,81.13
2023-08-17T03:02:13.064Z,81.01
2023-08-17T03:02:45.644Z,81.07
2023-08-17T03:03:18.257Z,81.14
2023-08-17T03:03:50.786Z,81.27
2023-08-17T03:04:23.283Z,81.24
2023-08-17T03:04:55.760Z,81.78
2023-08-17T03:05:28.298Z,81.72
2023-08-17T03:06:00.907Z,81.76
2023-08-17T03:06:33.435Z,81.33
2023-08-17T03:07:05.966Z,81.17
2023-08-17T03:07:38.481Z,81.35
2023-08-17T03:08:11.064Z,81.76
2023-08-17T03:08:43.589Z,81.67
2023-08-17T03:09:16.109Z,82.02
2023-08-17T03:09:48.592Z,82.08
2023-08-17T03:10:21.140Z,82.04
2023-08-17T03:10:53.733Z,82.04
2023-08-17T03:11:26.203Z,81.80
2023-08-17T03:11:58.718Z,81.73
2023-08-17T03:12:31.233Z,81.79
2023-08-17T03:13:03.845Z,81.72
2023-08-17T03:13:36.374Z,81.79
2023-08-17T03:14:08.869Z,81.65
2023-08-17T03:14:41.348Z,81.59
2023-08-17T03:15:13.922Z,81.53
2023-08-17T03:15:46.440Z,81.55
2023-08-17T03:16:18.975Z,81.59
2023-08-17T03:16:51.460Z,81.44
2023-08-17T03:17:24.222Z,81.63
2023-08-17T03:17:57.231Z,81.79
2023-08-17T03:18:29.716Z,81.69
2023-08-17T03:19:02.254Z,81.62
2023-08-17T03:19:34.770Z,81.36
2023-08-17T03:20:07.973Z,81.41
2023-08-17T03:20:40.522Z,81.30
2023-08-17T03:21:13.068Z,80.64
2023-08-17T03:21:45.685Z,80.71
2023-08-17T03:22:18.219Z,81.13
2023-08-17T03:22:50.766Z,81.67
2023-08-17T03:23:23.255Z,81.63
2023-08-17T03:23:55.737Z,81.45
2023-08-17T03:24:28.263Z,81.88
2023-08-17T03:25:00.806Z,81.41
2023-08-17T03:25:33.482Z,81.42
2023-08-17T03:26:06.017Z,81.62
2023-08-17T03:26:38.544Z,81.59
2023-08-17T03:27:11.056Z,81.44
2023-08-17T03:27:43.587Z,81.51
2023-08-17T03:28:16.117Z,81.68
2023-08-17T03:28:48.602Z,81.27
2023-08-17T03:29:21.145Z,81.37
2023-08-17T03:30:14.291Z,81.68
2023-08-17T03:30:46.857Z,81.22
2023-08-17T03:31:22.357Z,81.20
2023-08-17T03:31:56.925Z,81.69
2023-08-17T03:32:30.123Z,82.22
2023-08-17T03:33:02.662Z,82.66
2023-08-17T03:33:35.490Z,82.87
2023-08-17T03:34:07.976Z,82.59
2023-08-17T03:34:40.492Z,82.46
2023-08-17T03:35:14.263Z,82.75
2023-08-17T03:35:46.822Z,82.94
2023-08-17T03:36:19.305Z,82.77
2023-08-17T03:36:51.823Z,82.72
2023-08-17T03:37:24.648Z,82.88
2023-08-17T03:37:57.339Z,83.05
2023-08-17T03:38:29.823Z,83.00
2023-08-17T03:39:02.374Z,83.08
2023-08-17T03:39:34.896Z,83.19
2023-08-17T03:40:07.897Z,83.05
2023-08-17T03:40:40.682Z,82.92
2023-08-17T03:41:13.216Z,83.02
2023-08-17T03:41:45.699Z,83.06
2023-08-17T03:42:18.210Z,82.95
2023-08-17T03:42:50.727Z,82.92
2023-08-17T03:43:23.253Z,83.09
2023-08-17T03:43:55.761Z,83.29
2023-08-17T03:44:28.294Z,83.34
2023-08-17T03:45:00.824Z,83.22
2023-08-17T03:45:33.804Z,83.21
2023-08-17T03:46:06.815Z,83.38
2023-08-17T03:46:39.492Z,83.43
2023-08-17T03:47:12.075Z,83.62
2023-08-17T03:47:45.126Z,83.55
2023-08-17T03:48:17.681Z,83.38
2023-08-17T03:48:50.243Z,83.33
2023-08-17T03:49:22.994Z,83.31
2023-08-17T03:49:55.538Z,83.23
2023-08-17T03:50:29.321Z,83.14
2023-08-17T03:51:02.926Z,83.19
2023-08-17T03:51:35.477Z,83.29
2023-08-17T03:52:07.990Z,83.03
2023-08-17T03:52:40.480Z,83.20
2023-08-17T03:53:12.968Z,83.36
2023-08-17T03:53:45.476Z,83.62
2023-08-17T03:54:18.932Z,83.74
2023-08-17T03:54:51.497Z,83.53
2023-08-17T03:55:23.995Z,83.66
2023-08-17T03:55:56.472Z,83.37
2023-08-17T03:56:29.010Z,83.49
2023-08-17T03:57:01.565Z,82.99
2023-08-17T03:57:35.039Z,83.15
2023-08-17T03:58:08.912Z,83.53
2023-08-17T03:58:42.393Z,83.70
2023-08-17T03:59:15.364Z,83.93
2023-08-17T03:59:47.894Z,83.95
2023-08-17T04:00:20.441Z,84.07
2023-08-17T04:00:53.604Z,83.98
2023-08-17T04:01:26.120Z,83.86
2023-08-17T04:01:58.725Z,83.89
2023-08-17T04:02:31.287Z,83.98
2023-08-17T04:03:03.945Z,83.95
2023-08-17T04:03:36.471Z,84.06
2023-08-17T04:04:08.951Z,83.81
2023-08-17T04:04:41.561Z,83.95
2023-08-17T04:05:14.472Z,83.95
2023-08-17T04:05:46.985Z,84.04
2023-08-17T04:06:19.562Z,84.09
2023-08-17T04:06:52.068Z,84.06
2023-08-17T04:07:25.063Z,83.97
2023-08-17T04:08:02.772Z,83.97
2023-08-17T04:08:35.262Z,83.97
2023-08-17T04:09:07.749Z,84.13
2023-08-17T04:09:46.093Z,83.96
2023-08-17T04:10:18.589Z,83.80
2023-08-17T04:10:51.095Z,83.89
2023-08-17T04:11:23.603Z,83.88
2023-08-17T04:11:56.603Z,83.90
2023-08-17T04:12:29.086Z,84.08
2023-08-17T04:13:01.558Z,84.03
2023-08-17T04:13:34.096Z,84.02
2023-08-17T04:14:06.687Z,84.19
2023-08-17T04:14:39.201Z,84.45
2023-08-17T04:15:11.715Z,84.42
2023-08-17T04:15:44.212Z,84.40
2023-08-17T04:16:16.815Z,84.58
2023-08-17T04:16:49.330Z,84.63
2023-08-17T04:17:22.773Z,84.78
2023-08-17T04:17:55.357Z,84.81
2023-08-17T04:18:27.885Z,84.73
2023-08-17T04:19:00.403Z,84.59
2023-08-17T04:19:32.927Z,84.38
2023-08-17T04:20:06.000Z,84.21
2023-08-17T04:20:38.540Z,84.09
2023-08-17T04:21:11.064Z,84.39
2023-08-17T04:21:43.551Z,84.58
2023-08-17T04:22:16.072Z,84.24
2023-08-17T04:22:48.704Z,83.94
2023-08-17T04:23:21.222Z,84.26
2023-08-17T04:23:53.753Z,84.65
2023-08-17T04:24:26.252Z,84.44
2023-08-17T04:24:58.760Z,84.65
2023-08-17T04:25:31.345Z,84.58
2023-08-17T04:26:03.871Z,84.48
2023-08-17T04:26:36.394Z,84.37
2023-08-17T04:27:08.883Z,84.49
2023-08-17T04:27:41.426Z,84.48
2023-08-17T04:28:15.714Z,84.47
2023-08-17T04:28:49.275Z,84.49
2023-08-17T04:29:21.802Z,84.32
2023-08-17T04:29:54.288Z,84.47
2023-08-17T04:30:26.770Z,84.54
2023-08-17T04:30:59.298Z,84.74
2023-08-17T04:31:31.876Z,84.71
2023-08-17T04:32:04.741Z,84.71
2023-08-17T04:32:37.350Z,84.86
2023-08-17T04:33:10.232Z,84.99
2023-08-17T04:33:42.748Z,84.91
2023-08-17T04:34:15.279Z,84.82
2023-08-17T04:34:47.979Z,84.88
2023-08-17T04:35:21.308Z,85.07
2023-08-17T04:35:53.917Z,85.16
2023-08-17T04:36:26.454Z,85.20
2023-08-17T04:36:58.994Z,85.17
2023-08-17T04:37:31.479Z,85.13
2023-08-17T04:38:04.020Z,85.10
2023-08-17T04:38:36.541Z,84.99
2023-08-17T04:39:10.363Z,84.90
2023-08-17T04:39:44.497Z,84.85
2023-08-17T04:40:17.194Z,84.87
2023-08-17T04:40:49.684Z,84.82
2023-08-17T04:41:22.899Z,84.64
2023-08-17T04:41:55.522Z,84.46
2023-08-17T04:42:28.352Z,84.49
2023-08-17T04:43:00.878Z,84.44
2023-08-17T04:43:33.408Z,84.33
2023-08-17T04:44:06.147Z,84.27
2023-08-17T04:44:38.678Z,84.35
2023-08-17T04:45:11.414Z,84.52
2023-08-17T04:45:45.596Z,84.30
2023-08-17T04:46:18.122Z,84.06
2023-08-17T04:46:50.624Z,83.82
2023-08-17T04:47:23.192Z,83.86
2023-08-17T04:47:55.794Z,84.03
2023-08-17T04:48:28.345Z,84.13
2023-08-17T04:49:00.901Z,84.24
2023-08-17T04:49:33.404Z,84.27
2023-08-17T04:50:06.734Z,84.18
2023-08-17T04:50:39.222Z,84.01
2023-08-17T04:51:11.740Z,83.97
2023-08-17T04:51:44.228Z,84.03
2023-08-17T04:52:16.711Z,84.03
2023-08-17T04:52:49.220Z,84.05
2023-08-17T04:53:21.746Z,83.95
2023-08-17T04:53:54.502Z,84.08
2023-08-17T04:54:27.006Z,84.29
2023-08-17T04:54:59.608Z,84.16
2023-08-17T04:55:33.218Z,84.32
2023-08-17T04:56:05.791Z,84.23
2023-08-17T04:56:38.323Z,83.99
2023-08-17T04:57:11.701Z,83.68
2023-08-17T04:57:44.299Z,83.66
2023-08-17T04:58:16.779Z,83.75
2023-08-17T04:58:49.254Z,83.70
2023-08-17T04:59:21.737Z,83.57
2023-08-17T04:59:54.246Z,83.48
2023-08-17T05:00:29.306Z,83.33
2023-08-17T05:01:01.884Z,83.24
2023-08-17T05:01:34.489Z,83.01
2023-08-17T05:02:07.086Z,82.91
2023-08-17T05:02:40.784Z,81.94
2023-08-17T05:03:20.556Z,81.50
2023-08-17T05:04:05.383Z,80.85
2023-08-17T05:04:37.862Z,80.79
2023-08-17T05:05:11.699Z,81.12
2023-08-17T05:05:44.203Z,81.14
2023-08-17T05:06:16.728Z,80.90
2023-08-17T05:06:49.245Z,81.04
2023-08-17T05:07:21.769Z,81.30
2023-08-17T05:07:54.459Z,81.16
2023-08-17T05:08:26.951Z,80.94
2023-08-17T05:08:59.526Z,80.88
2023-08-17T05:09:32.019Z,80.68
2023-08-17T05:10:04.721Z,80.98
2023-08-17T05:10:37.238Z,80.98
2023-08-17T05:11:09.978Z,80.12
2023-08-17T05:11:42.551Z,79.87
2023-08-17T05:12:15.140Z,80.08
2023-08-17T05:12:48.110Z,79.84
2023-08-17T05:13:20.807Z,79.64
2023-08-17T05:13:53.284Z,79.29
2023-08-17T05:14:25.862Z,79.22
2023-08-17T05:14:58.377Z,79.41
2023-08-17T05:15:30.920Z,79.31
2023-08-17T05:16:03.468Z,79.36
2023-08-17T05:16:36.018Z,79.49
2023-08-17T05:17:08.551Z,79.26
2023-08-17T05:17:41.343Z,78.85
2023-08-17T05:18:13.836Z,79.01
2023-08-17T05:18:46.315Z,79.03
2023-08-17T05:19:18.838Z,78.95
2023-08-17T05:19:51.432Z,78.94
2023-08-17T05:20:23.964Z,78.89
2023-08-17T05:20:56.486Z,78.83
2023-08-17T05:21:29.024Z,79.09
2023-08-17T05:22:01.601Z,78.58
2023-08-17T05:22:34.093Z,78.54
2023-08-17T05:23:06.746Z,78.65
2023-08-17T05:23:39.254Z,78.60
2023-08-17T05:24:11.804Z,78.78
2023-08-17T05:24:44.272Z,78.77
2023-08-17T05:25:16.786Z,78.51
2023-08-17T05:25:49.353Z,78.50
2023-08-17T05:26:21.911Z,78.44
2023-08-17T05:26:55.510Z,78.12
2023-08-17T05:27:28.276Z,78.13
2023-08-17T05:28:00.913Z,78.17
2023-08-17T05:28:33.422Z,78.18
2023-08-17T05:29:05.951Z,78.10
2023-08-17T05:29:38.473Z,77.98
2023-08-17T05:30:11.233Z,77.68
2023-08-17T05:30:44.567Z,77.72
2023-08-17T05:31:17.119Z,77.78
2023-08-17T05:31:49.670Z,77.76
2023-08-17T05:32:22.174Z,77.98
2023-08-17T05:32:54.767Z,77.84
2023-08-17T05:33:27.339Z,77.48
2023-08-17T05:33:59.860Z,77.35
2023-08-17T05:34:32.409Z,77.30
2023-08-17T05:35:05.193Z,77.25
2023-08-17T05:35:37.710Z,77.04
2023-08-17T05:36:10.342Z,76.59
2023-08-17T05:36:43.621Z,76.92
2023-08-17T05:37:16.760Z,76.72
2023-08-17T05:37:49.255Z,76.78
2023-08-17T05:38:21.791Z,76.79
2023-08-17T05:38:54.276Z,76.22
2023-08-17T05:39:27.562Z,76.10
2023-08-17T05:40:00.202Z,76.40
2023-08-17T05:40:33.691Z,76.56
2023-08-17T05:41:06.201Z,76.66
2023-08-17T05:41:38.731Z,76.49
2023-08-17T05:42:11.219Z,75.98
2023-08-17T05:42:43.723Z,75.66
2023-08-17T05:43:16.247Z,75.48
2023-08-17T05:43:49.850Z,75.64
2023-08-17T05:44:22.539Z,75.64
2023-08-17T05:44:55.019Z,75.68
2023-08-17T05:45:27.509Z,75.58
2023-08-17T05:46:03.916Z,75.31
2023-08-17T05:46:36.700Z,75.00
2023-08-17T05:47:09.271Z,74.53
2023-08-17T05:47:41.805Z,74.11
2023-08-17T05:48:14.343Z,74.39
2023-08-17T05:48:46.861Z,74.91
2023-08-17T05:49:19.377Z,75.12
2023-08-17T05:49:51.857Z,74.94
2023-08-17T05:50:24.334Z,74.52
2023-08-17T05:50:57.818Z,74.13
2023-08-17T05:51:30.340Z,74.44
2023-08-17T05:52:02.860Z,74.67
2023-08-17T05:52:35.347Z,74.45
2023-08-17T05:53:07.854Z,73.96
2023-08-17T05:53:41.618Z,74.19
2023-08-17T05:54:14.872Z,73.87
2023-08-17T05:54:47.417Z,73.51
2023-08-17T05:55:19.937Z,73.63
2023-08-17T05:55:52.536Z,73.76
2023-08-17T05:56:25.047Z,74.04
2023-08-17T05:56:57.579Z,74.16
2023-08-17T05:57:30.120Z,74.43
2023-08-17T05:58:03.235Z,73.94
2023-08-17T05:58:35.758Z,73.68
2023-08-17T05:59:08.322Z,74.07
2023-08-17T05:59:40.847Z,74.54
2023-08-17T06:00:13.886Z,74.41
2023-08-17T06:00:46.880Z,74.29
2023-08-17T06:01:19.474Z,73.99
2023-08-17T06:01:52.069Z,73.19
2023-08-17T06:02:24.673Z,72.84
2023-08-17T06:03:02.365Z,73.04
2023-08-17T06:03:35.919Z,73.11
2023-08-17T06:04:08.474Z,73.29
2023-08-17T06:04:40.990Z,73.27
2023-08-17T06:05:13.536Z,73.10
2023-08-17T06:05:46.068Z,73.07
2023-08-17T06:06:18.563Z,73.27
2023-08-17T06:06:51.229Z,73.23
2023-08-17T06:07:23.862Z,72.98
2023-08-17T06:07:57.237Z,72.92
2023-08-17T06:08:30.636Z,73.19
2023-08-17T06:09:03.130Z,72.99
2023-08-17T06:09:35.633Z,72.76
2023-08-17T06:10:08.515Z,72.65
2023-08-17T06:10:41.071Z,72.86
2023-08-17T06:11:13.584Z,73.14
2023-08-17T06:11:46.051Z,73.39
2023-08-17T06:12:20.136Z,73.14
2023-08-17T06:12:56.830Z,72.86
2023-08-17T06:13:29.452Z,72.69
2023-08-17T06:14:01.992Z,73.07
2023-08-17T06:14:35.417Z,72.50
2023-08-17T06:15:08.406Z,72.27
2023-08-17T06:15:41.115Z,72.32
2023-08-17T06:16:13.644Z,72.56
2023-08-17T06:16:46.276Z,72.59
2023-08-17T06:17:18.830Z,72.91
2023-08-17T06:17:51.545Z,72.50
2023-08-17T06:18:24.128Z,72.30
2023-08-17T06:18:56.879Z,72.62
2023-08-17T06:19:29.376Z,72.61
2023-08-17T06:20:01.938Z,72.09
2023-08-17T06:20:34.455Z,71.59
2023-08-17T06:21:06.961Z,71.32
2023-08-17T06:21:39.447Z,70.50
2023-08-17T06:22:11.949Z,70.21
2023-08-17T06:22:44.588Z,70.75
2023-08-17T06:23:17.085Z,70.93
2023-08-17T06:23:49.643Z,70.87
2023-08-17T06:24:22.146Z,71.14
2023-08-17T06:24:54.676Z,70.74
2023-08-17T06:25:27.318Z,70.87
2023-08-17T06:26:00.109Z,71.11
2023-08-17T06:26:32.683Z,71.07
2023-08-17T06:27:05.228Z,70.45
2023-08-17T06:27:38.143Z,70.44
2023-08-17T06:28:10.679Z,70.42
2023-08-17T06:28:43.190Z,70.51
2023-08-17T06:29:15.749Z,70.67
2023-08-17T06:29:48.408Z,70.70
2023-08-17T06:30:21.006Z,70.69
2023-08-17T06:30:54.873Z,70.86
2023-08-17T06:31:28.697Z,70.34
2023-08-17T06:32:01.244Z,70.38
2023-08-17T06:32:33.781Z,70.70
2023-08-17T06:33:06.328Z,71.12
2023-08-17T06:33:38.880Z,71.15
2023-08-17T06:34:11.374Z,71.27
2023-08-17T06:34:43.863Z,71.36
2023-08-17T06:35:16.379Z,71.17
2023-08-17T06:35:50.450Z,71.46
2023-08-17T06:36:22.972Z,71.29
2023-08-17T06:37:04.168Z,71.41
2023-08-17T06:37:37.195Z,71.28
2023-08-17T06:38:09.775Z,70.97
2023-08-17T06:38:43.457Z,71.14
2023-08-17T06:39:15.984Z,70.92
2023-08-17T06:39:48.527Z,70.95
2023-08-17T06:40:21.021Z,70.64
2023-08-17T06:40:53.972Z,70.46
2023-08-17T06:41:26.691Z,70.72
2023-08-17T06:41:59.193Z,70.83
2023-08-17T06:42:31.728Z,70.81
2023-08-17T06:43:04.366Z,70.54
2023-08-17T06:43:36.916Z,70.62
2023-08-17T06:44:09.447Z,70.05
2023-08-17T06:44:41.966Z,69.79
2023-08-17T06:45:19.430Z,69.96
2023-08-17T06:45:51.988Z,70.17
2023-08-17T06:46:25.732Z,70.42
2023-08-17T06:46:58.387Z,70.53
2023-08-17T06:47:30.954Z,69.71
2023-08-17T06:48:03.657Z,69.26
2023-08-17T06:48:36.245Z,69.37
2023-08-17T06:49:09.761Z,69.65
2023-08-17T06:49:42.277Z,69.37
2023-08-17T06:50:14.764Z,68.87
2023-08-17T06:50:47.251Z,68.47
2023-08-17T06:51:19.748Z,68.84
2023-08-17T06:51:52.265Z,69.12
2023-08-17T06:52:25.700Z,68.98
2023-08-17T06:52:58.235Z,69.03
2023-08-17T06:53:30.734Z,69.16
2023-08-17T06:54:03.413Z,68.61
2023-08-17T06:54:36.589Z,68.14
2023-08-17T06:55:09.599Z,68.33
2023-08-17T06:55:42.132Z,67.96
2023-08-17T06:56:14.663Z,68.33
2023-08-17T06:56:47.164Z,68.08
2023-08-17T06:57:19.993Z,67.82
2023-08-17T06:57:52.964Z,66.96
2023-08-17T06:58:25.531Z,66.39
2023-08-17T06:58:58.070Z,66.32
2023-08-17T06:59:30.619Z,66.04
2023-08-17T07:00:06.284Z,66.09
2023-08-17T07:00:41.728Z,66.05
2023-08-17T07:01:15.684Z,66.26
2023-08-17T07:01:48.197Z,66.73
2023-08-17T07:02:21.632Z,66.79
2023-08-17T07:02:57.043Z,66.42
2023-08-17T07:03:31.383Z,66.15
2023-08-17T07:04:04.059Z,66.38
2023-08-17T07:04:36.577Z,66.27
2023-08-17T07:05:09.498Z,66.20
2023-08-17T07:05:42.082Z,66.48
2023-08-17T07:06:14.594Z,66.51
2023-08-17T07:06:47.190Z,66.33
2023-08-17T07:07:19.705Z,66.07
2023-08-17T07:07:52.198Z,66.39
2023-08-17T07:08:24.685Z,66.42
2023-08-17T07:08:57.824Z,65.55